createdAt,value
2018-05-31T00:00:18.081Z,16.60
2018-05-31T00:02:46.002Z,16.60
2018-05-31T00:05:13.942Z,16.70
2018-05-31T00:07:41.869Z,16.70
2018-05-31T00:10:10.555Z,16.60
2018-05-31T00:12:39.234Z,16.70
2018-05-31T00:15:07.149Z,16.70
2018-05-31T00:17:35.082Z,16.70
2018-05-31T00:20:03.798Z,16.60
2018-05-31T00:22:31.748Z,16.60
2018-05-31T00:25:00.459Z,16.60
2018-05-31T00:27:28.374Z,16.60
2018-05-31T00:29:56.294Z,16.70
2018-05-31T00:32:24.268Z,16.70
2018-05-31T00:34:52.205Z,16.60
2018-05-31T00:37:20.922Z,16.60
2018-05-31T00:39:48.845Z,16.50
2018-05-31T00:42:16.825Z,16.50
2018-05-31T00:44:46.434Z,16.50
2018-05-31T00:47:14.553Z,16.50
2018-05-31T00:49:42.518Z,16.40
2018-05-31T00:52:10.455Z,16.40
2018-05-31T00:54:38.404Z,16.40
2018-05-31T00:57:06.366Z,16.40
2018-05-31T00:59:34.335Z,16.50
2018-05-31T01:02:02.257Z,16.50
2018-05-31T01:04:30.179Z,16.50
2018-05-31T01:06:58.135Z,16.50
2018-05-31T01:09:26.045Z,16.40
2018-05-31T01:11:54.917Z,16.40
2018-05-31T01:14:23.613Z,16.40
2018-05-31T01:16:51.538Z,16.40
2018-05-31T01:19:19.457Z,16.40
2018-05-31T01:21:47.402Z,16.40
2018-05-31T01:24:15.368Z,16.30
2018-05-31T01:26:43.303Z,16.20
2018-05-31T01:29:11.230Z,16.00
2018-05-31T01:31:39.915Z,16.10
2018-05-31T01:34:07.856Z,16.10
2018-05-31T01:36:35.792Z,15.90
2018-05-31T01:39:03.863Z,16.00
2018-05-31T01:41:31.830Z,16.00
2018-05-31T01:43:59.751Z,16.00
2018-05-31T01:46:27.667Z,16.10
2018-05-31T01:48:55.578Z,16.00
2018-05-31T01:51:23.625Z,16.00
2018-05-31T01:53:51.526Z,16.00
2018-05-31T01:56:19.486Z,16.00
2018-05-31T01:58:47.420Z,16.00
2018-05-31T02:01:15.342Z,16.00
2018-05-31T02:03:43.265Z,16.00
2018-05-31T02:06:11.190Z,15.90
2018-05-31T02:08:39.134Z,15.90
2018-05-31T02:11:07.122Z,15.80
2018-05-31T02:13:35.101Z,15.90
2018-05-31T02:16:03.040Z,15.90
2018-05-31T02:18:30.972Z,15.80
2018-05-31T02:20:58.873Z,15.80
2018-05-31T02:23:26.800Z,15.90
2018-05-31T02:25:55.553Z,15.80
2018-05-31T02:28:23.481Z,15.80
2018-05-31T02:30:51.392Z,15.70
2018-05-31T02:33:20.125Z,15.60
2018-05-31T02:35:48.058Z,15.50
2018-05-31T02:38:15.999Z,15.50
2018-05-31T02:40:43.951Z,15.50
2018-05-31T02:43:11.893Z,15.60
2018-05-31T02:45:40.570Z,15.60
2018-05-31T02:48:09.330Z,15.50
2018-05-31T02:50:37.293Z,15.50
2018-05-31T02:53:06.073Z,15.50
2018-05-31T02:55:34.048Z,15.50
2018-05-31T02:58:02.017Z,15.50
2018-05-31T03:00:29.945Z,15.40
2018-05-31T03:02:57.880Z,15.40
2018-05-31T03:05:25.863Z,15.40
2018-05-31T03:07:53.940Z,15.50
2018-05-31T03:10:22.610Z,15.40
2018-05-31T03:12:50.587Z,15.40
2018-05-31T03:15:18.508Z,15.40
2018-05-31T03:17:46.505Z,15.30
2018-05-31T03:20:14.440Z,15.40
2018-05-31T03:22:42.346Z,15.30
2018-05-31T03:25:10.278Z,15.40
2018-05-31T03:27:38.246Z,15.40
2018-05-31T03:30:06.216Z,15.40
2018-05-31T03:32:34.174Z,15.40
2018-05-31T03:35:02.119Z,15.30
2018-05-31T03:37:30.040Z,15.30
2018-05-31T03:39:57.974Z,15.30
2018-05-31T03:42:26.637Z,15.30
2018-05-31T03:44:54.581Z,15.30
2018-05-31T03:47:22.569Z,15.40
2018-05-31T03:49:50.552Z,15.40
2018-05-31T03:52:19.228Z,15.50
2018-05-31T03:54:47.154Z,15.40
2018-05-31T03:57:15.074Z,15.40
2018-05-31T03:59:43.061Z,15.50
2018-05-31T04:02:11.765Z,15.50
2018-05-31T04:04:39.679Z,15.50
2018-05-31T04:07:08.535Z,15.60
2018-05-31T04:09:36.491Z,15.60
2018-05-31T04:12:04.417Z,15.70
2018-05-31T04:14:32.386Z,15.90
2018-05-31T04:17:00.340Z,16.10
2018-05-31T04:19:28.316Z,16.20
2018-05-31T04:21:57.034Z,16.40
2018-05-31T04:24:24.978Z,16.40
2018-05-31T04:26:52.935Z,16.40
2018-05-31T04:29:20.880Z,16.50
2018-05-31T04:31:48.797Z,16.60
2018-05-31T04:34:17.518Z,16.70
2018-05-31T04:36:45.457Z,16.70
2018-05-31T04:39:13.400Z,16.80
2018-05-31T04:41:41.333Z,16.90
2018-05-31T04:44:09.293Z,17.10
2018-05-31T04:46:38.037Z,17.30
2018-05-31T04:49:05.999Z,17.30
2018-05-31T04:51:33.904Z,17.50
2018-05-31T04:54:01.827Z,17.80
2018-05-31T04:56:29.804Z,18.10
2018-05-31T04:58:57.731Z,18.30
2018-05-31T05:01:26.431Z,19.10
2018-05-31T05:03:54.426Z,19.10
2018-05-31T05:06:22.363Z,19.50
2018-05-31T05:08:50.375Z,19.60
2018-05-31T05:11:18.312Z,20.00
2018-05-31T05:13:46.317Z,20.40
2018-05-31T05:16:14.299Z,20.70
2018-05-31T05:18:42.276Z,21.00
2018-05-31T05:21:10.193Z,21.00
2018-05-31T05:23:38.128Z,21.30
2018-05-31T05:26:06.106Z,22.00
2018-05-31T05:28:34.871Z,23.50
2018-05-31T05:31:02.812Z,23.50
2018-05-31T05:33:30.736Z,23.70
2018-05-31T05:35:58.648Z,23.80
2018-05-31T05:38:26.666Z,23.40
2018-05-31T05:40:54.589Z,23.10
2018-05-31T05:43:22.555Z,22.80
2018-05-31T05:45:50.481Z,22.80
2018-05-31T05:48:18.430Z,22.40
2018-05-31T05:50:46.390Z,22.50
2018-05-31T05:53:14.431Z,22.50
2018-05-31T05:55:42.352Z,22.40
2018-05-31T05:58:12.263Z,22.40
2018-05-31T06:00:40.210Z,22.20
2018-05-31T06:03:08.221Z,21.80
2018-05-31T06:05:36.995Z,21.70
2018-05-31T06:08:04.968Z,21.70
2018-05-31T06:10:32.964Z,21.90
2018-05-31T06:13:00.924Z,21.80
2018-05-31T06:15:29.618Z,21.80
2018-05-31T06:17:57.591Z,21.80
2018-05-31T06:20:25.561Z,21.60
2018-05-31T06:22:54.241Z,22.20
2018-05-31T06:25:22.148Z,22.10
2018-05-31T06:27:50.064Z,22.20
2018-05-31T06:30:18.039Z,22.40
2018-05-31T06:32:46.005Z,22.70
2018-05-31T06:35:13.946Z,22.90
2018-05-31T06:37:41.855Z,23.40
2018-05-31T06:40:09.764Z,23.90
2018-05-31T06:42:38.935Z,24.30
2018-05-31T06:45:08.168Z,24.50
2018-05-31T06:47:37.424Z,24.40
2018-05-31T06:50:06.645Z,24.30
2018-05-31T06:52:35.933Z,24.40
2018-05-31T06:55:05.347Z,24.40
2018-05-31T06:57:34.429Z,24.30
2018-05-31T07:00:02.479Z,24.70
2018-05-31T07:02:30.388Z,24.80
2018-05-31T07:04:59.095Z,26.30
2018-05-31T07:07:27.009Z,26.30
2018-05-31T07:09:54.976Z,27.00
2018-05-31T07:12:22.986Z,27.30
2018-05-31T07:14:51.660Z,27.00
2018-05-31T07:17:22.601Z,27.00
2018-05-31T07:19:55.108Z,26.90
2018-05-31T07:22:24.028Z,26.90
2018-05-31T07:24:51.935Z,26.90
2018-05-31T07:27:20.707Z,27.10
2018-05-31T07:29:49.415Z,27.40
2018-05-31T07:32:17.309Z,27.40
2018-05-31T07:34:45.249Z,27.20
2018-05-31T07:37:13.154Z,27.30
2018-05-31T07:39:41.064Z,27.00
2018-05-31T07:42:08.961Z,27.00
2018-05-31T07:44:36.897Z,27.20
2018-05-31T07:47:04.960Z,27.40
2018-05-31T07:49:35.152Z,27.80
2018-05-31T07:52:03.324Z,27.70
2018-05-31T07:54:31.335Z,27.60
2018-05-31T07:56:59.230Z,27.20
2018-05-31T07:59:27.207Z,27.10
2018-05-31T08:01:55.881Z,27.00
2018-05-31T08:04:23.845Z,27.00
2018-05-31T08:06:51.820Z,27.30
2018-05-31T08:09:19.731Z,27.30
2018-05-31T08:11:47.665Z,27.30
2018-05-31T08:14:15.566Z,27.20
2018-05-31T08:16:50.523Z,26.90
2018-05-31T08:19:18.493Z,26.90
2018-05-31T08:21:46.426Z,26.60
2018-05-31T08:24:15.188Z,26.30
2018-05-31T08:26:43.128Z,26.30
2018-05-31T08:29:11.872Z,26.80
2018-05-31T08:31:40.635Z,26.50
2018-05-31T08:34:09.737Z,26.40
2018-05-31T08:36:39.023Z,26.90
2018-05-31T08:39:07.920Z,27.00
2018-05-31T08:41:35.857Z,27.10
2018-05-31T08:44:03.993Z,27.50
2018-05-31T08:46:32.709Z,28.60
2018-05-31T08:49:00.637Z,28.60
2018-05-31T08:51:28.575Z,29.00
2018-05-31T08:53:56.513Z,29.50
2018-05-31T08:56:24.428Z,29.90
2018-05-31T08:58:52.336Z,30.20
2018-05-31T09:01:21.039Z,32.50
2018-05-31T09:03:50.817Z,32.40
2018-05-31T09:06:18.733Z,32.80
2018-05-31T09:08:47.150Z,32.60
2018-05-31T09:11:15.431Z,32.30
2018-05-31T09:13:43.700Z,32.40
2018-05-31T09:16:11.891Z,32.30
2018-05-31T09:18:39.887Z,31.40
2018-05-31T09:21:07.847Z,31.00
2018-05-31T09:23:36.518Z,32.80
2018-05-31T09:26:04.460Z,32.70
2018-05-31T09:28:32.397Z,33.10
2018-05-31T09:31:00.595Z,34.10
2018-05-31T09:33:28.610Z,35.10
2018-05-31T09:35:56.561Z,35.80
2018-05-31T09:38:24.493Z,35.80
2018-05-31T09:40:52.413Z,35.20
2018-05-31T09:43:20.369Z,34.90
2018-05-31T09:45:48.291Z,34.90
2018-05-31T09:48:16.205Z,34.60
2018-05-31T09:50:44.203Z,34.30
2018-05-31T09:53:12.919Z,34.40
2018-05-31T09:55:40.844Z,34.40
2018-05-31T09:58:09.007Z,34.10
2018-05-31T10:00:38.769Z,33.90
2018-05-31T10:03:06.720Z,33.80
2018-05-31T10:05:35.629Z,33.60
2018-05-31T10:08:03.548Z,33.60
2018-05-31T10:10:31.490Z,33.90
2018-05-31T10:12:59.383Z,34.90
2018-05-31T10:15:27.325Z,35.70
2018-05-31T10:17:55.244Z,33.90
2018-05-31T10:20:23.149Z,34.60
2018-05-31T10:22:51.091Z,33.90
2018-05-31T10:25:19.064Z,34.50
2018-05-31T10:27:47.069Z,34.90
2018-05-31T10:30:15.029Z,33.20
2018-05-31T10:32:43.007Z,32.90
2018-05-31T10:35:10.963Z,33.70
2018-05-31T10:37:38.894Z,34.60
2018-05-31T10:40:10.277Z,34.50
2018-05-31T10:42:38.962Z,33.10
2018-05-31T10:45:07.721Z,33.20
2018-05-31T10:47:35.711Z,33.20
2018-05-31T10:50:04.461Z,33.20
2018-05-31T10:52:32.369Z,33.20
2018-05-31T10:55:00.276Z,32.50
2018-05-31T10:57:28.182Z,33.00
2018-05-31T10:59:56.136Z,33.30
2018-05-31T11:02:24.097Z,33.30
2018-05-31T11:04:52.033Z,33.00
2018-05-31T11:07:19.922Z,33.40
2018-05-31T11:09:47.925Z,34.10
2018-05-31T11:12:15.959Z,34.60
2018-05-31T11:14:43.930Z,34.40
2018-05-31T11:17:11.846Z,33.70
2018-05-31T11:19:39.826Z,34.50
2018-05-31T11:22:07.820Z,35.10
2018-05-31T11:24:36.554Z,34.60
2018-05-31T11:27:04.510Z,34.60
2018-05-31T11:29:32.656Z,34.40
2018-05-31T11:32:01.394Z,35.50
2018-05-31T11:34:29.326Z,35.50
2018-05-31T11:36:57.311Z,35.40
2018-05-31T11:39:25.242Z,35.60
2018-05-31T11:41:53.197Z,34.80
2018-05-31T11:44:21.155Z,34.50
2018-05-31T11:46:49.138Z,34.60
2018-05-31T11:49:18.417Z,33.60
2018-05-31T11:51:47.175Z,34.70
2018-05-31T11:54:15.895Z,34.60
2018-05-31T11:56:43.864Z,34.90
2018-05-31T11:59:11.828Z,33.80
2018-05-31T12:01:39.812Z,33.00
2018-05-31T12:04:07.830Z,32.50
2018-05-31T12:06:35.796Z,32.00
2018-05-31T12:09:03.822Z,31.60
2018-05-31T12:11:31.743Z,32.20
2018-05-31T12:14:00.683Z,32.70
2018-05-31T12:16:29.401Z,32.80
2018-05-31T12:18:57.740Z,32.80
2018-05-31T12:21:25.729Z,31.70
2018-05-31T12:23:53.689Z,31.30
2018-05-31T12:26:21.630Z,30.10
2018-05-31T12:28:49.588Z,29.60
2018-05-31T12:31:17.520Z,29.30
2018-05-31T12:33:45.491Z,28.70
2018-05-31T12:36:13.439Z,29.10
2018-05-31T12:38:41.373Z,29.40
2018-05-31T12:41:09.359Z,29.60
2018-05-31T12:43:37.304Z,29.20
2018-05-31T12:46:05.245Z,29.40
2018-05-31T12:48:33.344Z,29.40
2018-05-31T12:51:02.390Z,29.20
2018-05-31T12:53:30.378Z,29.40
2018-05-31T12:55:58.300Z,29.60
2018-05-31T12:58:27.017Z,29.50
2018-05-31T13:00:54.972Z,29.50
2018-05-31T13:03:22.894Z,29.20
2018-05-31T13:05:51.668Z,28.50
2018-05-31T13:08:19.641Z,28.50
2018-05-31T13:10:47.589Z,28.30
2018-05-31T13:13:15.513Z,28.10
2018-05-31T13:15:43.477Z,27.90
2018-05-31T13:18:11.430Z,27.90
2018-05-31T13:20:40.129Z,27.60
2018-05-31T13:23:08.841Z,27.40
2018-05-31T13:25:36.815Z,27.40
2018-05-31T13:28:04.735Z,27.20
2018-05-31T13:30:32.639Z,26.90
2018-05-31T13:33:00.557Z,26.70
2018-05-31T13:35:28.552Z,27.00
2018-05-31T13:37:57.241Z,27.50
2018-05-31T13:40:25.950Z,27.70
2018-05-31T13:42:53.859Z,27.70
2018-05-31T13:45:21.849Z,28.00
2018-05-31T13:47:49.799Z,28.40
2018-05-31T13:50:17.775Z,28.60
2018-05-31T13:52:45.684Z,28.80
2018-05-31T13:55:13.916Z,29.00
2018-05-31T13:57:41.863Z,29.10
2018-05-31T14:00:09.786Z,29.20
2018-05-31T14:02:38.504Z,29.10
2018-05-31T14:05:06.583Z,29.10
2018-05-31T14:07:34.525Z,29.10
2018-05-31T14:10:03.236Z,30.00
2018-05-31T14:12:31.204Z,30.00
2018-05-31T14:14:59.941Z,30.20
2018-05-31T14:17:27.838Z,30.20
2018-05-31T14:19:56.509Z,30.30
2018-05-31T14:22:24.409Z,30.30
2018-05-31T14:24:52.307Z,30.30
2018-05-31T14:27:20.246Z,30.20
2018-05-31T14:29:48.178Z,30.40
2018-05-31T14:32:16.122Z,30.10
2018-05-31T14:34:44.043Z,30.10
2018-05-31T14:37:12.722Z,30.60
2018-05-31T14:39:41.614Z,30.40
2018-05-31T14:42:09.554Z,30.50
2018-05-31T14:44:37.461Z,30.70
2018-05-31T14:47:06.538Z,30.30
2018-05-31T14:49:35.253Z,29.80
2018-05-31T14:52:03.213Z,29.80
2018-05-31T14:54:31.149Z,29.70
2018-05-31T14:56:59.159Z,29.70
2018-05-31T14:59:27.901Z,29.10
2018-05-31T15:01:55.833Z,29.00
2018-05-31T15:04:24.705Z,29.00
2018-05-31T15:06:52.665Z,29.00
2018-05-31T15:09:21.375Z,28.80
2018-05-31T15:11:49.308Z,28.80
2018-05-31T15:14:17.348Z,28.80
2018-05-31T15:16:45.361Z,28.50
2018-05-31T15:19:13.344Z,28.50
2018-05-31T15:21:41.292Z,28.50
2018-05-31T15:24:09.262Z,28.30
2018-05-31T15:26:37.183Z,28.20
2018-05-31T15:29:05.126Z,28.00
2018-05-31T15:31:33.056Z,28.10
2018-05-31T15:34:01.031Z,27.80
2018-05-31T15:36:29.128Z,27.80
2018-05-31T15:38:57.800Z,27.80
2018-05-31T15:41:25.715Z,27.70
2018-05-31T15:43:53.629Z,27.60
2018-05-31T15:46:21.553Z,27.60
2018-05-31T15:48:49.482Z,27.60
2018-05-31T15:51:17.474Z,27.60
2018-05-31T15:53:46.198Z,27.40
2018-05-31T15:56:14.139Z,27.30
2018-05-31T15:58:42.069Z,27.40
2018-05-31T16:01:09.966Z,27.30
2018-05-31T16:03:38.656Z,27.50
2018-05-31T16:06:07.361Z,27.40
2018-05-31T16:08:35.692Z,27.40
2018-05-31T16:11:04.394Z,27.30
2018-05-31T16:13:32.350Z,27.30
2018-05-31T16:16:00.354Z,27.20
2018-05-31T16:18:28.288Z,27.20
2018-05-31T16:20:56.224Z,27.30
2018-05-31T16:23:24.199Z,27.40
2018-05-31T16:25:52.167Z,27.50
2018-05-31T16:28:20.123Z,27.40
2018-05-31T16:30:48.095Z,27.40
2018-05-31T16:33:16.006Z,27.20
2018-05-31T16:35:43.922Z,27.30
2018-05-31T16:38:11.863Z,27.30
2018-05-31T16:40:39.773Z,27.10
2018-05-31T16:43:07.792Z,27.10
2018-05-31T16:45:35.705Z,27.10
2018-05-31T16:48:03.662Z,27.00
2018-05-31T16:50:31.562Z,27.00
2018-05-31T16:52:59.514Z,27.00
2018-05-31T16:55:27.449Z,26.80
2018-05-31T16:57:55.427Z,26.80
2018-05-31T17:00:23.362Z,26.90
2018-05-31T17:02:51.321Z,26.80
2018-05-31T17:05:19.330Z,26.70
2018-05-31T17:07:50.370Z,26.70
2018-05-31T17:10:18.530Z,26.80
2018-05-31T17:12:46.509Z,26.70
2018-05-31T17:15:14.433Z,26.50
2018-05-31T17:17:42.730Z,26.50
2018-05-31T17:20:10.663Z,26.40
2018-05-31T17:22:38.548Z,26.30
2018-05-31T17:25:06.460Z,26.30
2018-05-31T17:27:34.438Z,26.20
2018-05-31T17:30:03.193Z,26.10
2018-05-31T17:32:33.566Z,26.10
2018-05-31T17:35:02.244Z,26.10
2018-05-31T17:37:32.190Z,26.00
2018-05-31T17:40:00.153Z,26.10
2018-05-31T17:42:28.060Z,26.00
2018-05-31T17:44:56.320Z,26.00
2018-05-31T17:47:24.385Z,26.00
2018-05-31T17:49:55.752Z,26.00
2018-05-31T17:52:23.874Z,26.00
2018-05-31T17:54:52.555Z,26.00
2018-05-31T17:57:21.238Z,26.00
2018-05-31T17:59:49.150Z,26.00
2018-05-31T18:02:17.058Z,25.90
2018-05-31T18:04:44.981Z,25.90
2018-05-31T18:07:12.895Z,25.90
2018-05-31T18:09:40.834Z,25.80
2018-05-31T18:12:08.774Z,25.70
2018-05-31T18:14:37.434Z,25.50
2018-05-31T18:17:05.376Z,25.50
2018-05-31T18:19:33.297Z,25.50
2018-05-31T18:22:01.988Z,25.30
2018-05-31T18:24:29.908Z,25.30
2018-05-31T18:26:58.415Z,25.20
2018-05-31T18:29:26.377Z,25.10
2018-05-31T18:31:54.312Z,24.90
2018-05-31T18:34:22.229Z,24.80
2018-05-31T18:36:50.183Z,24.60
2018-05-31T18:39:18.084Z,24.50
2018-05-31T18:41:46.854Z,24.10
2018-05-31T18:44:14.769Z,24.10
2018-05-31T18:46:42.685Z,23.90
2018-05-31T18:49:10.640Z,23.70
2018-05-31T18:51:38.617Z,23.60
2018-05-31T18:54:06.572Z,23.50
2018-05-31T18:56:34.495Z,23.50
2018-05-31T18:59:02.415Z,23.30
2018-05-31T19:01:30.394Z,23.20
2018-05-31T19:03:58.330Z,23.10
2018-05-31T19:06:26.349Z,22.90
2018-05-31T19:08:54.254Z,22.90
2018-05-31T19:11:22.295Z,22.80
2018-05-31T19:13:56.345Z,22.70
2018-05-31T19:16:25.290Z,22.50
2018-05-31T19:18:58.687Z,22.50
2018-05-31T19:21:26.825Z,22.40
2018-05-31T19:23:54.853Z,22.30
2018-05-31T19:26:26.708Z,22.20
2018-05-31T19:28:55.612Z,22.00
2018-05-31T19:31:24.415Z,21.80
2018-05-31T19:33:52.329Z,21.80
2018-05-31T19:36:25.731Z,21.70
2018-05-31T19:38:53.657Z,21.70
2018-05-31T19:41:21.571Z,21.60
2018-05-31T19:43:55.170Z,21.50
2018-05-31T19:46:23.906Z,21.30
2018-05-31T19:48:52.341Z,21.30
2018-05-31T19:51:26.101Z,21.20
2018-05-31T19:53:57.349Z,21.20
2018-05-31T19:56:27.898Z,21.10
2018-05-31T19:59:03.833Z,21.00
2018-05-31T20:01:38.722Z,20.90
2018-05-31T20:04:10.688Z,20.80
2018-05-31T20:06:41.702Z,20.70
2018-05-31T20:09:12.041Z,20.70
2018-05-31T20:11:42.314Z,20.60
2018-05-31T20:14:13.181Z,20.60
2018-05-31T20:16:44.296Z,20.50
2018-05-31T20:19:14.819Z,20.30
2018-05-31T20:21:44.002Z,20.30
2018-05-31T20:24:13.145Z,20.20
2018-05-31T20:26:42.192Z,20.10
2018-05-31T20:29:11.335Z,20.10
2018-05-31T20:31:40.349Z,20.10
2018-05-31T20:34:11.001Z,20.00
2018-05-31T20:36:38.918Z,19.90
2018-05-31T20:39:06.834Z,19.80
2018-05-31T20:41:34.730Z,19.80
2018-05-31T20:44:02.644Z,19.90
2018-05-31T20:46:30.551Z,19.70
2018-05-31T20:48:58.447Z,19.70
2018-05-31T20:51:27.140Z,19.60
2018-05-31T20:53:55.822Z,19.60
2018-05-31T20:56:24.538Z,19.50
2018-05-31T20:58:52.441Z,19.50
2018-05-31T21:01:20.545Z,19.50
2018-05-31T21:03:49.245Z,19.50
2018-05-31T21:06:17.344Z,19.40
2018-05-31T21:08:45.502Z,19.40
2018-05-31T21:11:13.437Z,19.40
2018-05-31T21:13:41.554Z,19.40
2018-05-31T21:16:09.520Z,19.40
2018-05-31T21:18:37.431Z,19.30
2018-05-31T21:21:05.333Z,19.30
2018-05-31T21:23:33.240Z,19.30
2018-05-31T21:26:01.248Z,19.20
2018-05-31T21:28:29.279Z,19.20
2018-05-31T21:30:57.203Z,19.20
2018-05-31T21:33:25.113Z,19.10
2018-05-31T21:35:53.066Z,19.10
2018-05-31T21:38:20.972Z,19.00
2018-05-31T21:40:50.618Z,19.00
2018-05-31T21:43:20.005Z,18.90
2018-05-31T21:45:48.050Z,18.90
2018-05-31T21:48:15.987Z,18.90
2018-05-31T21:50:43.927Z,18.80
2018-05-31T21:53:11.832Z,18.80
2018-05-31T21:55:39.749Z,18.80
2018-05-31T21:58:07.651Z,18.70
2018-05-31T22:00:43.624Z,18.70
2018-05-31T22:03:11.617Z,18.70
2018-05-31T22:05:39.555Z,18.70
2018-05-31T22:08:07.622Z,18.70
2018-05-31T22:10:36.314Z,18.60
2018-05-31T22:13:04.278Z,18.60
2018-05-31T22:15:32.948Z,18.70
2018-05-31T22:18:00.886Z,18.60
2018-05-31T22:20:28.849Z,18.60
2018-05-31T22:22:56.852Z,18.70
2018-05-31T22:25:24.758Z,18.70
2018-05-31T22:27:52.759Z,18.70
2018-05-31T22:30:20.668Z,18.70
2018-05-31T22:32:49.514Z,18.70
2018-05-31T22:35:17.886Z,18.70
2018-05-31T22:37:45.806Z,18.70
2018-05-31T22:40:16.864Z,18.70
2018-05-31T22:42:45.321Z,18.60
2018-05-31T22:45:13.669Z,18.60
2018-05-31T22:47:44.574Z,18.60
2018-05-31T22:50:19.346Z,18.60
2018-05-31T22:52:52.498Z,18.50
2018-05-31T22:55:24.743Z,18.50
2018-05-31T22:57:56.136Z,18.50
2018-05-31T23:00:27.390Z,18.50
2018-05-31T23:02:59.690Z,18.50
2018-05-31T23:05:31.228Z,18.50
2018-05-31T23:08:03.469Z,18.50
2018-05-31T23:10:35.361Z,18.50
2018-05-31T23:13:06.498Z,18.50
2018-05-31T23:15:37.556Z,18.50
2018-05-31T23:18:09.326Z,18.50
2018-05-31T23:20:39.852Z,18.50
2018-05-31T23:23:10.923Z,18.40
2018-05-31T23:25:41.711Z,18.30
2018-05-31T23:28:12.817Z,18.30
2018-05-31T23:30:43.430Z,18.30
2018-05-31T23:33:11.609Z,18.40
2018-05-31T23:35:39.555Z,18.40
2018-05-31T23:38:07.457Z,18.30
2018-05-31T23:40:35.365Z,18.20
2018-05-31T23:43:03.250Z,18.10
2018-05-31T23:45:31.170Z,18.10
2018-05-31T23:47:59.065Z,18.20
2018-05-31T23:50:26.971Z,18.30
2018-05-31T23:52:54.898Z,18.20
2018-05-31T23:55:22.792Z,18.20
2018-05-31T23:57:50.683Z,18.30
